KALO/ALO METAR and TAF weather

Enter ICAO airport designator
Station Type Date Time Source
KALO METAR 2022/01/18 06:54 UTC NOAA

KALO 180654Z AUTO 17008KT 10SM OVC095 M02/M05 A2985 RMK AO2 SLP120 T10221050 $


Station Type Date Time Source
KALO Decoded METAR 2022/01/18 06:54 UTC NOAA

WATERLOO MUNICIPAL AIRPORT, IA, United States (KALO) 42-33N 92-24W 264M
Jan 18, 2022 - 01:54 AM EST / 2022.01.18 0654 UTC
Wind: from the S (170 degrees) at 9 MPH (8 KT):0
Visibility: 10 mile(s):0
Sky conditions: overcast
Temperature: 28.0 F (-2.2 C)
Windchill: 19 F (-7 C):1
Dew Point: 23.0 F (-5.0 C)
Relative Humidity: 81%
Pressure (altimeter): 29.85 in. Hg (1010 hPa)
ob: KALO 180654Z AUTO 17008KT 10SM OVC095 M02/M05 A2985 RMK AO2 SLP120 T10221050
cycle: 7

Station Type Date Time Source
KALO TAF 2022/01/18 06:39 UTC NOAA

TAF KALO 180535Z 1806/1906 17005KT P6SM BKN090
FM180800 15006KT 4SM BR BKN008
FM181600 18009KT P6SM BKN100
FM181800 19010KT P6SM BKN130 WS020/25035KT
FM182300 26011G19KT P6SM SCT150

Example: see airport list